Time;durP1;ratioP1;P1;durP2;ratioP2;P2;SDS_P1;SDS_P2;PMS_P1;PMS_P2;Temp;Humidity;BMP_temperature;BMP_pressure;BME280_temperature;BME280_humidity;BME280_pressure;Samples;Min_cycle;Max_cycle;Signal;HPM_P1;HPM_P2
2023/06/14 00:02:14;;;;;;;;;;;;;;;27.75;41.66;101550.50;5070371;28;19913;-73
2023/06/14 00:04:41;;;;;;;;;;;;;;;27.75;41.51;101555.97;5056528;28;19957;-73
2023/06/14 00:07:09;;;;;;;;;;;;;;;27.74;41.79;101556.16;5072512;28;19913;-73
2023/06/14 00:09:34;;;;;;;;;;;;;;;27.72;41.92;101553.59;5061984;28;19919;-73
2023/06/14 00:12:00;;;;;;;;;;;;;;;27.73;41.77;101549.00;5047636;28;19955;-72
2023/06/14 00:14:25;;;;;;;;;;;;;;;27.71;41.86;101551.94;5049054;28;20400;-72
2023/06/14 00:16:52;;;;;;;;;;;;;;;27.71;41.40;101559.28;5065755;28;20270;-73
2023/06/14 00:19:18;;;;;;;;;;;;;;;27.70;41.82;101549.41;5056224;28;19988;-73
2023/06/14 00:21:43;;;;;;;;;;;;;;;27.69;41.64;101547.72;5069467;28;19912;-73
2023/06/14 00:24:08;;;;;;;;;;;;;;;27.69;41.68;101561.38;5065182;28;19964;-73
2023/06/14 00:26:33;;;;;;;;;;;;;;;27.67;41.66;101553.41;5054032;28;19913;-72
2023/06/14 00:28:58;;;;;;;;;;;;;;;27.65;41.55;101553.63;5073604;28;19940;-72
2023/06/14 00:31:24;;;;;;;;;;;;;;;27.66;41.48;101559.94;5057759;28;19964;-72
2023/06/14 00:33:49;;;;;;;;;;;;;;;27.64;41.39;101560.13;5053009;28;19927;-72
2023/06/14 00:36:14;;;;;;;;;;;;;;;27.63;41.75;101569.38;5052730;28;19965;-73
2023/06/14 00:38:39;;;;;;;;;;;;;;;27.63;41.57;101569.38;5061954;28;20322;-72
2023/06/14 00:41:05;;;;;;;;;;;;;;;27.62;41.70;101567.72;5064640;28;19924;-73
2023/06/14 00:43:30;;;;;;;;;;;;;;;27.61;41.52;101570.63;5062068;28;19925;-73
2023/06/14 00:45:55;;;;;;;;;;;;;;;27.60;41.70;101558.03;5061226;28;19919;-73
2023/06/14 00:48:20;;;;;;;;;;;;;;;27.59;41.67;101565.38;5063207;28;19916;-72
2023/06/14 00:50:45;;;;;;;;;;;;;;;27.59;41.53;101572.75;5066048;28;19913;-72
2023/06/14 00:53:17;;;;;;;;;;;;;;;27.58;41.66;101568.34;5052186;28;19925;-73
2023/06/14 00:55:42;;;;;;;;;;;;;;;27.57;41.48;101563.91;5051892;28;19917;-72
2023/06/14 00:58:07;;;;;;;;;;;;;;;27.56;41.61;101568.53;5022363;28;19924;-72
2023/06/14 01:00:32;;;;;;;;;;;;;;;27.55;41.31;101563.28;5065705;28;19925;-72
2023/06/14 01:02:58;;;;;;;;;;;;;;;27.55;41.55;101566.03;5067893;28;19920;-73
2023/06/14 01:05:23;;;;;;;;;;;;;;;27.54;41.55;101561.63;5058376;28;19917;-73
2023/06/14 01:08:07;;;;;;;;;;;;;;;27.53;41.21;101565.41;5048213;28;19916;-72
2023/06/14 01:10:41;;;;;;;;;;;;;;;27.52;41.37;101567.28;5062516;28;19916;-73
2023/06/14 01:13:12;;;;;;;;;;;;;;;27.50;41.38;101563.94;5060455;28;19917;-73
2023/06/14 01:15:37;;;;;;;;;;;;;;;27.50;41.29;101561.19;5061531;28;19924;-73
2023/06/14 01:18:03;;;;;;;;;;;;;;;27.50;41.27;101563.94;5047783;28;19931;-73
2023/06/14 01:20:32;;;;;;;;;;;;;;;27.49;41.12;101562.25;5040898;28;19942;-73
2023/06/14 01:22:57;;;;;;;;;;;;;;;27.48;41.33;101559.72;5054069;28;19954;-73
2023/06/14 01:25:23;;;;;;;;;;;;;;;27.49;41.32;101564.16;5059695;28;19913;-72
2023/06/14 01:27:49;;;;;;;;;;;;;;;27.47;40.97;101558.88;5041443;28;19924;-73
2023/06/14 01:30:14;;;;;;;;;;;;;;;27.46;41.16;101559.94;5054706;28;19917;-73
2023/06/14 01:32:40;;;;;;;;;;;;;;;27.46;40.95;101565.41;5038522;28;19928;-73
2023/06/14 01:35:05;;;;;;;;;;;;;;;27.45;41.16;101560.16;5064137;28;19916;-73
2023/06/14 01:37:30;;;;;;;;;;;;;;;27.44;41.13;101564.75;5060210;28;19913;-73
2023/06/14 01:39:55;;;;;;;;;;;;;;;27.43;41.14;101560.34;5046415;28;19923;-73
2023/06/14 01:42:21;;;;;;;;;;;;;;;27.43;40.76;101568.53;5045128;28;20367;-73
2023/06/14 01:44:46;;;;;;;;;;;;;;;27.42;40.94;101564.13;5053071;28;19917;-73
2023/06/14 01:47:11;;;;;;;;;;;;;;;27.41;41.02;101571.50;5041094;28;19917;-73
2023/06/14 01:49:36;;;;;;;;;;;;;;;27.40;40.88;101569.81;5052129;28;20003;-73
2023/06/14 01:52:01;;;;;;;;;;;;;;;27.39;40.73;101565.38;5066199;28;19956;-72
2023/06/14 01:54:27;;;;;;;;;;;;;;;27.38;40.73;101571.06;5060588;28;19963;-73
2023/06/14 01:56:52;;;;;;;;;;;;;;;27.39;40.91;101568.09;5061967;28;19912;-73
2023/06/14 01:59:17;;;;;;;;;;;;;;;27.38;40.72;101569.16;5062752;28;19920;-72
2023/06/14 02:01:42;;;;;;;;;;;;;;;27.38;40.83;101571.91;5052550;28;19921;-73
2023/06/14 02:04:08;;;;;;;;;;;;;;;27.36;40.70;101565.81;5068287;28;20497;-73
2023/06/14 02:06:34;;;;;;;;;;;;;;;27.36;40.67;101560.38;5064921;28;19913;-73
2023/06/14 02:09:00;;;;;;;;;;;;;;;27.36;40.75;101567.72;5068021;28;20367;-73
2023/06/14 02:11:25;;;;;;;;;;;;;;;27.36;40.76;101562.25;5067280;28;19912;-73
2023/06/14 02:13:50;;;;;;;;;;;;;;;27.36;40.56;101567.72;5064923;28;19983;-73
2023/06/14 02:16:17;;;;;;;;;;;;;;;27.34;40.33;101567.06;5067415;28;19975;-73
2023/06/14 02:18:42;;;;;;;;;;;;;;;27.34;40.30;101565.19;5070487;28;19924;-73
2023/06/14 02:21:07;;;;;;;;;;;;;;;27.34;40.60;101565.19;5057123;28;19917;-73
2023/06/14 02:23:33;;;;;;;;;;;;;;;27.33;40.55;101563.50;5059980;28;19913;-73
2023/06/14 02:25:58;;;;;;;;;;;;;;;27.33;40.40;101566.22;5053513;28;20433;-73
2023/06/14 02:28:24;;;;;;;;;;;;;;;27.32;40.41;101564.56;5064301;28;19913;-73
2023/06/14 02:30:49;;;;;;;;;;;;;;;27.32;40.37;101571.91;5069584;28;19916;-72
2023/06/14 02:33:15;;;;;;;;;;;;;;;27.31;40.30;101567.47;5063188;28;20391;-73
2023/06/14 02:35:40;;;;;;;;;;;;;;;27.30;40.47;101572.09;5065970;28;20420;-74
2023/06/14 02:38:05;;;;;;;;;;;;;;;27.30;40.17;101566.66;5047990;28;19913;-73
2023/06/14 02:40:30;;;;;;;;;;;;;;;27.30;40.49;101569.38;5048928;28;19952;-72
2023/06/14 02:42:56;;;;;;;;;;;;;;;27.29;40.14;101569.59;5061451;28;19956;-72
2023/06/14 02:45:21;;;;;;;;;;;;;;;27.29;40.37;101569.59;5074575;28;19916;-72
2023/06/14 02:47:46;;;;;;;;;;;;;;;27.27;40.38;101569.81;5058422;28;19913;-72
2023/06/14 02:50:11;;;;;;;;;;;;;;;27.27;40.25;101563.47;5068546;28;20065;-72
2023/06/14 02:52:37;;;;;;;;;;;;;;;27.27;40.24;101571.69;5066530;28;20051;-73
2023/06/14 02:55:03;;;;;;;;;;;;;;;27.25;40.16;101573.78;5057439;28;19921;-72
2023/06/14 02:57:28;;;;;;;;;;;;;;;27.25;40.37;101568.31;5073268;28;19913;-72
2023/06/14 02:59:53;;;;;;;;;;;;;;;27.24;40.15;101578.41;5060066;28;19918;-73
2023/06/14 03:02:18;;;;;;;;;;;;;;;27.23;39.98;101581.31;5066329;28;19922;-72
2023/06/14 03:04:44;;;;;;;;;;;;;;;27.22;40.16;101579.66;5066040;28;19970;-72
2023/06/14 03:07:09;;;;;;;;;;;;;;;27.22;39.99;101585.13;5068670;28;19916;-73
2023/06/14 03:09:36;;;;;;;;;;;;;;;27.20;39.92;101588.06;5044938;28;20327;-72
2023/06/14 03:12:02;;;;;;;;;;;;;;;27.19;39.95;101594.59;5073714;28;19916;-72
2023/06/14 03:14:29;;;;;;;;;;;;;;;27.18;39.99;101595.59;5060368;28;19921;-74
2023/06/14 03:16:56;;;;;;;;;;;;;;;27.16;40.19;101597.72;5063329;28;19917;-73
2023/06/14 03:19:21;;;;;;;;;;;;;;;27.16;40.03;101600.44;5069370;28;19924;-73
2023/06/14 03:21:47;;;;;;;;;;;;;;;27.15;39.89;101601.50;5049633;28;19913;-73
2023/06/14 03:24:12;;;;;;;;;;;;;;;27.12;39.88;101600.00;5056361;28;19935;-73
2023/06/14 03:26:37;;;;;;;;;;;;;;;27.11;40.08;101603.81;5061018;28;19917;-72
2023/06/14 03:29:02;;;;;;;;;;;;;;;27.10;39.91;101604.84;5066612;28;19916;-72
2023/06/14 03:31:32;;;;;;;;;;;;;;;27.09;40.04;101615.94;5052655;28;19948;-73
2023/06/14 03:33:57;;;;;;;;;;;;;;;27.08;40.04;101620.53;5054811;28;19920;-73
2023/06/14 03:36:22;;;;;;;;;;;;;;;27.07;40.04;101618.88;5059702;28;19916;-73
2023/06/14 03:38:47;;;;;;;;;;;;;;;27.06;39.83;101613.59;5050062;28;19916;-73
2023/06/14 03:41:13;;;;;;;;;;;;;;;27.05;39.95;101617.38;5064609;28;19913;-73
2023/06/14 03:43:38;;;;;;;;;;;;;;;27.04;39.76;101619.28;5061850;28;19984;-73
2023/06/14 03:46:03;;;;;;;;;;;;;;;27.03;39.95;101614.88;5071929;28;19913;-73
2023/06/14 03:48:28;;;;;;;;;;;;;;;27.03;39.91;101624.94;5056952;28;19913;-72
2023/06/14 03:50:54;;;;;;;;;;;;;;;27.02;39.78;101626.00;5072485;28;19912;-72
2023/06/14 03:53:23;;;;;;;;;;;;;;;27.01;39.90;101621.56;5046297;28;19945;-73
2023/06/14 03:55:48;;;;;;;;;;;;;;;27.00;39.79;101625.34;5046009;28;19956;-72
2023/06/14 03:58:14;;;;;;;;;;;;;;;27.00;39.83;101631.66;5070300;28;19913;-72
2023/06/14 04:00:40;;;;;;;;;;;;;;;26.99;39.81;101629.13;5062197;28;19932;-72
2023/06/14 04:03:05;;;;;;;;;;;;;;;26.99;40.04;101629.13;5060322;28;19913;-73
2023/06/14 04:05:31;;;;;;;;;;;;;;;26.97;39.86;101632.06;5067171;28;19924;-72
2023/06/14 04:07:56;;;;;;;;;;;;;;;26.96;39.75;101632.28;5066359;28;19920;-73
2023/06/14 04:10:22;;;;;;;;;;;;;;;26.97;39.79;101642.97;5060097;28;19923;-72
2023/06/14 04:12:47;;;;;;;;;;;;;;;26.96;39.86;101635.84;5055918;28;19917;-73
2023/06/14 04:15:13;;;;;;;;;;;;;;;26.95;39.89;101645.06;5050762;28;19921;-73
2023/06/14 04:17:38;;;;;;;;;;;;;;;26.95;39.68;101649.69;5068112;28;19916;-72
2023/06/14 04:20:05;;;;;;;;;;;;;;;26.94;39.65;101657.03;5067562;28;19917;-73
2023/06/14 04:22:31;;;;;;;;;;;;;;;26.94;39.57;101651.59;5056299;28;19913;-73
2023/06/14 04:24:56;;;;;;;;;;;;;;;26.93;39.81;101658.06;5068064;28;19952;-73
2023/06/14 04:27:24;;;;;;;;;;;;;;;26.91;39.78;101650.09;5061917;28;19968;-72
2023/06/14 04:29:56;;;;;;;;;;;;;;;26.90;39.66;101659.34;5060893;28;20266;-73
2023/06/14 04:32:22;;;;;;;;;;;;;;;26.86;39.89;101649.88;5061250;28;19971;-72
2023/06/14 04:34:47;;;;;;;;;;;;;;;26.90;39.56;101662.06;5064904;28;19913;-73
2023/06/14 04:37:13;;;;;;;;;;;;;;;26.89;39.78;101665.84;5060559;28;19913;-73
2023/06/14 04:39:38;;;;;;;;;;;;;;;26.87;39.69;101667.91;5073259;28;20306;-72
2023/06/14 04:42:04;;;;;;;;;;;;;;;26.88;39.76;101669.59;5061119;28;19936;-72
2023/06/14 04:44:31;;;;;;;;;;;;;;;26.88;39.69;101666.03;5052239;28;19924;-72
2023/06/14 04:46:58;;;;;;;;;;;;;;;26.85;39.74;101675.47;5069433;28;19913;-72
2023/06/14 04:49:23;;;;;;;;;;;;;;;26.86;39.87;101684.50;5059028;28;19976;-73
2023/06/14 04:51:57;;;;;;;;;;;;;;;26.86;39.63;101684.50;5051270;28;19920;-72
2023/06/14 04:54:22;;;;;;;;;;;;;;;26.85;39.70;101688.28;5060456;28;19982;-73
2023/06/14 04:56:47;;;;;;;;;;;;;;;26.85;39.51;101682.84;5062075;28;19917;-73
2023/06/14 04:59:12;;;;;;;;;;;;;;;26.83;39.76;101693.94;5064549;28;20419;-73
2023/06/14 05:01:37;;;;;;;;;;;;;;;26.82;39.61;101689.53;5067760;28;19919;-72
2023/06/14 05:04:03;;;;;;;;;;;;;;;26.82;39.69;101691.41;5040702;28;19923;-73
2023/06/14 05:06:28;;;;;;;;;;;;;;;26.82;39.64;101699.59;5070992;28;19913;-73
2023/06/14 05:08:53;;;;;;;;;;;;;;;26.81;39.70;101698.75;5062909;28;20374;-73
2023/06/14 05:11:19;;;;;;;;;;;;;;;26.80;39.68;101697.06;5057559;28;19912;-73
2023/06/14 05:13:44;;;;;;;;;;;;;;;26.80;39.82;101693.50;5056427;28;19963;-72
2023/06/14 05:16:11;;;;;;;;;;;;;;;26.78;39.66;101699.16;5056705;28;19956;-72
2023/06/14 05:18:37;;;;;;;;;;;;;;;26.79;39.78;101705.44;5070894;28;19947;-72
2023/06/14 05:21:03;;;;;;;;;;;;;;;26.77;39.91;101700.22;5063284;28;19931;-72
2023/06/14 05:23:28;;;;;;;;;;;;;;;26.78;39.59;101701.06;5062923;28;19941;-72
2023/06/14 05:25:54;;;;;;;;;;;;;;;26.77;39.75;101699.38;5066091;28;19924;-73
2023/06/14 05:28:20;;;;;;;;;;;;;;;26.77;39.78;101708.41;5065659;28;19917;-72
2023/06/14 05:30:46;;;;;;;;;;;;;;;26.75;39.66;101702.28;5061735;28;19913;-72
2023/06/14 05:33:11;;;;;;;;;;;;;;;26.74;39.68;101695.16;5051240;28;20366;-72
2023/06/14 05:35:37;;;;;;;;;;;;;;;26.75;39.60;101698.72;5066723;28;20015;-72
2023/06/14 05:38:02;;;;;;;;;;;;;;;26.73;39.77;101698.94;5045219;28;19921;-72
2023/06/14 05:40:28;;;;;;;;;;;;;;;26.73;39.71;101703.53;5056915;28;20055;-72
2023/06/14 05:42:53;;;;;;;;;;;;;;;26.73;39.75;101703.53;5060227;28;19916;-72
2023/06/14 05:45:18;;;;;;;;;;;;;;;26.72;39.69;101710.88;5064088;28;19980;-72
2023/06/14 05:47:43;;;;;;;;;;;;;;;26.72;39.69;101704.56;5066749;28;19949;-73
2023/06/14 05:50:09;;;;;;;;;;;;;;;26.71;39.69;101708.34;5060151;28;20012;-72
2023/06/14 05:52:34;;;;;;;;;;;;;;;26.71;39.56;101716.53;5062983;28;19917;-73
2023/06/14 05:54:59;;;;;;;;;;;;;;;26.71;39.69;101719.25;5063514;28;19912;-72
2023/06/14 05:57:25;;;;;;;;;;;;;;;26.70;39.87;101718.41;5063050;28;19916;-72
2023/06/14 05:59:51;;;;;;;;;;;;;;;26.69;39.77;101719.47;5044796;28;19924;-72
2023/06/14 06:02:16;;;;;;;;;;;;;;;26.70;39.59;101728.50;5069778;28;20370;-72
2023/06/14 06:04:41;;;;;;;;;;;;;;;26.69;39.71;101726.81;5054480;28;19940;-72
2023/06/14 06:07:07;;;;;;;;;;;;;;;26.70;39.74;101731.22;5069891;28;19912;-73
2023/06/14 06:09:32;;;;;;;;;;;;;;;26.68;39.83;101725.97;5062985;28;19960;-72
2023/06/14 06:11:57;;;;;;;;;;;;;;;26.69;39.73;101738.56;5058737;28;19913;-72
2023/06/14 06:14:22;;;;;;;;;;;;;;;26.69;39.63;101732.28;5055129;28;19931;-72
2023/06/14 06:16:47;;;;;;;;;;;;;;;26.70;39.67;101744.84;5042315;28;19970;-72
2023/06/14 06:19:13;;;;;;;;;;;;;;;26.69;39.64;101729.53;5048016;28;20438;-72
2023/06/14 06:21:38;;;;;;;;;;;;;;;26.69;39.58;101740.44;5044953;28;20305;-72
2023/06/14 06:24:05;;;;;;;;;;;;;;;26.69;39.68;101740.44;5046465;28;20353;-72
2023/06/14 06:26:30;;;;;;;;;;;;;;;26.68;39.76;101736.88;5060327;28;19970;-73
2023/06/14 06:28:57;;;;;;;;;;;;;;;26.69;39.68;101737.72;5066965;28;19913;-73
2023/06/14 06:31:22;;;;;;;;;;;;;;;26.67;39.64;101746.94;5062952;28;19940;-72
2023/06/14 06:33:47;;;;;;;;;;;;;;;26.67;39.67;101744.19;5071051;28;19916;-72
2023/06/14 06:36:12;;;;;;;;;;;;;;;26.66;39.80;101747.97;5069278;28;19917;-72
2023/06/14 06:38:37;;;;;;;;;;;;;;;26.66;39.66;101756.16;5056335;28;19916;-73
2023/06/14 06:41:03;;;;;;;;;;;;;;;26.67;39.57;101759.72;5076770;28;19917;-73
2023/06/14 06:43:28;;;;;;;;;;;;;;;26.65;39.63;101757.22;5063330;28;19960;-73
2023/06/14 06:45:53;;;;;;;;;;;;;;;26.65;39.82;101759.09;5066846;28;19924;-73
2023/06/14 06:48:18;;;;;;;;;;;;;;;26.65;39.60;101759.09;5069587;28;19913;-73
2023/06/14 06:50:43;;;;;;;;;;;;;;;26.64;39.58;101760.16;5064795;28;19919;-73
2023/06/14 06:53:09;;;;;;;;;;;;;;;26.64;39.55;101763.72;5064981;28;19955;-73
2023/06/14 06:55:34;;;;;;;;;;;;;;;26.63;39.67;101759.31;5055007;28;20862;-72
2023/06/14 06:58:00;;;;;;;;;;;;;;;26.62;39.65;101763.06;5065512;28;19913;-73
2023/06/14 07:00:25;;;;;;;;;;;;;;;26.61;39.59;101766.00;5060347;28;20296;-73
2023/06/14 07:02:50;;;;;;;;;;;;;;;26.61;39.70;101766.84;5071692;28;19913;-73
2023/06/14 07:05:16;;;;;;;;;;;;;;;26.60;39.63;101767.88;5056282;28;20374;-73
2023/06/14 07:07:41;;;;;;;;;;;;;;;26.60;39.68;101767.88;5073325;28;19921;-73
2023/06/14 07:10:07;;;;;;;;;;;;;;;26.59;39.73;101771.66;5047812;28;19912;-73
2023/06/14 07:12:33;;;;;;;;;;;;;;;26.59;39.79;101771.66;5050645;28;19916;-73
2023/06/14 07:14:59;;;;;;;;;;;;;;;26.59;39.62;101773.53;5057934;28;19925;-73
2023/06/14 07:17:24;;;;;;;;;;;;;;;26.59;39.64;101770.78;5045144;28;19928;-73
2023/06/14 07:19:50;;;;;;;;;;;;;;;26.59;39.46;101776.25;5053328;28;19917;-73
2023/06/14 07:22:16;;;;;;;;;;;;;;;26.57;39.63;101778.34;5063892;28;19959;-73
2023/06/14 07:24:41;;;;;;;;;;;;;;;26.58;39.84;101777.28;5068326;28;19916;-73
2023/06/14 07:27:07;;;;;;;;;;;;;;;26.57;39.93;101787.38;5061474;28;19962;-73
2023/06/14 07:29:32;;;;;;;;;;;;;;;26.57;39.78;101778.34;5057152;28;19927;-73
2023/06/14 07:31:57;;;;;;;;;;;;;;;26.56;39.90;101777.50;5062568;28;19912;-73
2023/06/14 07:34:23;;;;;;;;;;;;;;;26.55;39.83;101783.16;5065771;28;19943;-73
2023/06/14 07:36:48;;;;;;;;;;;;;;;26.54;39.91;101781.47;5067955;28;19949;-73
2023/06/14 07:39:13;;;;;;;;;;;;;;;26.55;39.88;101781.28;5057361;28;19921;-73
2023/06/14 07:41:38;;;;;;;;;;;;;;;26.55;39.79;101786.75;5072890;28;19916;-73
2023/06/14 07:44:03;;;;;;;;;;;;;;;26.54;39.68;101785.03;5058537;28;19923;-73
2023/06/14 07:46:29;;;;;;;;;;;;;;;26.53;39.95;101786.06;5050890;28;20008;-73
2023/06/14 07:48:55;;;;;;;;;;;;;;;26.52;39.94;101792.59;5037415;28;20020;-73
2023/06/14 07:51:21;;;;;;;;;;;;;;;26.52;39.96;101786.28;5068786;28;19913;-73
2023/06/14 07:53:47;;;;;;;;;;;;;;;26.52;39.82;101792.59;5061736;28;19912;-73
2023/06/14 07:56:12;;;;;;;;;;;;;;;26.52;39.89;101791.75;5052107;28;19916;-73
2023/06/14 07:58:37;;;;;;;;;;;;;;;26.51;40.06;101796.34;5064254;28;19964;-73
2023/06/14 08:01:06;;;;;;;;;;;;;;;26.51;40.00;101801.81;5060329;28;19917;-72
2023/06/14 08:03:31;;;;;;;;;;;;;;;26.51;40.05;101798.25;5071124;28;19912;-73
2023/06/14 08:05:56;;;;;;;;;;;;;;;26.50;39.90;101802.81;5056707;28;19917;-73
2023/06/14 08:08:21;;;;;;;;;;;;;;;26.50;39.90;101794.66;5053005;28;19916;-73
2023/06/14 08:10:47;;;;;;;;;;;;;;;26.50;40.06;101797.38;5063178;28;19913;-73
2023/06/14 08:13:13;;;;;;;;;;;;;;;26.49;39.93;101787.50;5061724;28;19921;-73
2023/06/14 08:15:38;;;;;;;;;;;;;;;26.48;40.14;101791.28;5070006;28;19931;-73
2023/06/14 08:18:03;;;;;;;;;;;;;;;26.50;39.98;101791.91;5063842;28;19949;-73
2023/06/14 08:20:30;;;;;;;;;;;;;;;26.49;39.94;101789.41;5059488;28;19917;-73
2023/06/14 08:22:56;;;;;;;;;;;;;;;26.49;40.18;101795.69;5067212;28;19924;-73
2023/06/14 08:25:22;;;;;;;;;;;;;;;26.49;40.03;101797.59;5050039;28;19912;-73
2023/06/14 08:27:47;;;;;;;;;;;;;;;26.49;40.09;101792.13;5037372;28;19916;-73
2023/06/14 08:30:12;;;;;;;;;;;;;;;26.48;39.90;101788.56;5074965;28;19985;-73
2023/06/14 08:32:38;;;;;;;;;;;;;;;26.49;39.96;101789.41;5059228;28;19917;-73
2023/06/14 08:35:04;;;;;;;;;;;;;;;26.48;39.99;101794.03;5065871;28;19979;-73
2023/06/14 08:37:29;;;;;;;;;;;;;;;26.48;40.11;101785.84;5066556;28;19976;-73
2023/06/14 08:39:56;;;;;;;;;;;;;;;26.49;40.04;101781.22;5058804;28;19921;-73
2023/06/14 08:42:21;;;;;;;;;;;;;;;26.49;40.17;101786.69;5065455;28;19958;-73
2023/06/14 08:44:46;;;;;;;;;;;;;;;26.49;39.92;101786.69;5044867;28;19917;-73
2023/06/14 08:47:11;;;;;;;;;;;;;;;26.49;40.08;101778.50;5043921;28;20027;-73
2023/06/14 08:49:36;;;;;;;;;;;;;;;26.49;39.96;101786.69;5047862;28;20004;-73
2023/06/14 08:52:02;;;;;;;;;;;;;;;26.50;40.11;101788.34;5068992;28;20003;-73
2023/06/14 08:54:29;;;;;;;;;;;;;;;26.49;40.12;101792.97;5037166;28;20028;-73
2023/06/14 08:56:57;;;;;;;;;;;;;;;26.49;40.23;101782.06;5053670;28;19913;-73
2023/06/14 08:59:36;;;;;;;;;;;;;;;26.48;39.99;101791.28;5061708;28;19923;-73
2023/06/14 09:02:03;;;;;;;;;;;;;;;26.49;40.18;101783.94;5064691;28;19995;-72
2023/06/14 09:04:29;;;;;;;;;;;;;;;26.49;40.23;101787.50;5068187;28;19924;-73
2023/06/14 09:06:54;;;;;;;;;;;;;;;26.49;40.11;101778.50;5056810;28;19913;-73
2023/06/14 09:09:20;;;;;;;;;;;;;;;26.50;40.24;101777.44;5050508;28;19971;-73
2023/06/14 09:11:45;;;;;;;;;;;;;;;26.49;40.25;101790.25;5059400;28;19912;-73
2023/06/14 09:14:11;;;;;;;;;;;;;;;26.49;40.08;101776.59;5046409;28;19927;-73
2023/06/14 09:16:36;;;;;;;;;;;;;;;26.49;40.15;101783.94;5064309;28;19912;-73
2023/06/14 09:19:02;;;;;;;;;;;;;;;26.49;40.24;101786.69;5067069;28;19913;-72
2023/06/14 09:21:27;;;;;;;;;;;;;;;26.50;40.12;101782.91;5057305;28;19923;-72
2023/06/14 09:23:53;;;;;;;;;;;;;;;26.50;40.28;101785.63;5051362;28;19936;-72
2023/06/14 09:26:22;;;;;;;;;;;;;;;26.50;40.25;101780.16;5064047;28;19913;-72
2023/06/14 09:28:48;;;;;;;;;;;;;;;26.50;40.08;101786.47;5056569;28;20376;-73
2023/06/14 09:31:15;;;;;;;;;;;;;;;26.50;40.25;101786.47;5069484;28;19913;-73
2023/06/14 09:33:47;;;;;;;;;;;;;;;26.50;40.14;101789.19;5053695;28;19920;-73
2023/06/14 09:36:31;;;;;;;;;;;;;;;26.51;40.26;101787.34;5066360;28;19972;-73
2023/06/14 09:39:07;;;;;;;;;;;;;;;26.51;40.36;101781.88;5063057;28;19963;-73
2023/06/14 09:41:35;;;;;;;;;;;;;;;26.52;40.42;101786.28;5063656;28;19921;-73
2023/06/14 09:44:02;;;;;;;;;;;;;;;26.52;40.11;101780.84;5046889;28;19924;-72
2023/06/14 09:46:27;;;;;;;;;;;;;;;26.52;40.42;101786.28;5048748;28;19921;-73
2023/06/14 09:48:53;;;;;;;;;;;;;;;26.52;40.13;101789.84;5030606;28;19924;-72
2023/06/14 09:51:18;;;;;;;;;;;;;;;26.52;40.17;101787.13;5051329;28;19951;-72
2023/06/14 09:53:43;;;;;;;;;;;;;;;26.53;40.40;101786.06;5061356;28;19921;-72
2023/06/14 09:56:08;;;;;;;;;;;;;;;26.52;40.02;101778.09;5041141;28;19912;-72
2023/06/14 09:58:33;;;;;;;;;;;;;;;26.52;40.43;101787.13;5068814;28;19950;-72
2023/06/14 10:00:59;;;;;;;;;;;;;;;26.53;40.44;101783.34;5042842;28;20746;-72
2023/06/14 10:03:25;;;;;;;;;;;;;;;26.54;40.33;101792.38;5049554;28;19976;-73
2023/06/14 10:05:50;;;;;;;;;;;;;;;26.54;40.39;101795.94;5046631;28;19973;-72
2023/06/14 10:08:16;;;;;;;;;;;;;;;26.55;40.33;101785.88;5046240;28;19920;-72
2023/06/14 10:10:42;;;;;;;;;;;;;;;26.55;40.64;101778.56;5071511;28;19948;-72
2023/06/14 10:13:07;;;;;;;;;;;;;;;26.55;40.51;101792.19;5048843;28;19983;-72
2023/06/14 10:15:35;;;;;;;;;;;;;;;26.56;40.58;101785.69;5060456;28;19981;-73
2023/06/14 10:18:23;;;;;;;;;;;;;;;26.57;40.56;101786.53;5067785;28;19913;-72
2023/06/14 10:21:08;;;;;;;;;;;;;;;26.56;40.62;101782.97;5070073;28;19940;-73
2023/06/14 10:23:35;;;;;;;;;;;;;;;26.57;40.41;101795.56;5062137;28;19913;-72
2023/06/14 10:26:01;;;;;;;;;;;;;;;26.57;40.78;101781.91;5071184;28;19938;-73
2023/06/14 10:28:26;;;;;;;;;;;;;;;26.58;40.78;101780.88;5050367;28;20433;-72
2023/06/14 10:31:18;;;;;;;;;;;;;;;26.59;40.51;101777.13;5073526;28;19939;-73
2023/06/14 10:33:50;;;;;;;;;;;;;;;26.60;40.59;101784.25;5057271;28;19924;-72
2023/06/14 10:36:21;;;;;;;;;;;;;;;26.61;40.78;101782.38;5067422;28;19942;-72
2023/06/14 10:38:46;;;;;;;;;;;;;;;26.62;40.82;101773.13;5067566;28;19912;-72
2023/06/14 10:41:11;;;;;;;;;;;;;;;26.62;40.77;101776.69;5049499;28;19925;-72
2023/06/14 10:43:37;;;;;;;;;;;;;;;26.63;40.68;101780.25;5043638;28;19913;-72
2023/06/14 10:46:15;;;;;;;;;;;;;;;26.64;40.76;101779.25;5069775;28;19972;-72
2023/06/14 10:48:41;;;;;;;;;;;;;;;26.65;40.88;101778.19;5060884;28;19948;-71
2023/06/14 10:51:08;;;;;;;;;;;;;;;26.66;40.90;101771.69;5068240;28;20491;-72
2023/06/14 10:53:39;;;;;;;;;;;;;;;26.67;40.71;101776.09;5069258;28;19936;-72
2023/06/14 10:56:08;;;;;;;;;;;;;;;26.68;40.68;101772.34;5055559;28;19913;-72
2023/06/14 10:58:33;;;;;;;;;;;;;;;26.69;40.88;101782.22;5075876;28;20390;-73
2023/06/14 11:00:58;;;;;;;;;;;;;;;26.70;40.94;101781.16;5062439;28;19921;-73
2023/06/14 11:03:37;;;;;;;;;;;;;;;26.72;40.66;101775.50;5048448;28;19916;-73
2023/06/14 11:06:06;;;;;;;;;;;;;;;26.73;40.74;101764.41;5065363;28;19914;-73
2023/06/14 11:08:31;;;;;;;;;;;;;;;26.74;40.98;101774.25;5047384;28;19920;-73
2023/06/14 11:11:00;;;;;;;;;;;;;;;26.76;40.85;101771.31;5064595;28;19920;-73
2023/06/14 11:13:25;;;;;;;;;;;;;;;26.77;41.05;101776.59;5050221;28;19919;-71
2023/06/14 11:15:52;;;;;;;;;;;;;;;26.78;41.12;101767.38;5062083;28;20286;-71
2023/06/14 11:18:18;;;;;;;;;;;;;;;26.80;40.99;101775.34;5063174;28;19913;-72
2023/06/14 11:20:45;;;;;;;;;;;;;;;26.81;41.09;101775.16;5070021;28;19916;-72
2023/06/14 11:23:10;;;;;;;;;;;;;;;26.83;41.21;101777.69;5051923;28;19953;-72
2023/06/14 11:25:36;;;;;;;;;;;;;;;26.83;40.94;101778.50;5077239;28;19916;-72
2023/06/14 11:28:01;;;;;;;;;;;;;;;26.85;41.01;101772.88;5061408;28;19939;-73
2023/06/14 11:30:26;;;;;;;;;;;;;;;26.86;41.07;101769.94;5062570;28;19920;-73
2023/06/14 11:32:51;;;;;;;;;;;;;;;26.88;40.91;101770.56;5067116;28;19971;-72
2023/06/14 11:35:17;;;;;;;;;;;;;;;26.90;41.09;101765.75;5044678;28;20003;-72
2023/06/14 11:37:44;;;;;;;;;;;;;;;26.91;41.00;101770.16;5061719;28;19924;-72
2023/06/14 11:40:10;;;;;;;;;;;;;;;26.94;40.98;101768.09;5066251;28;19917;-73
2023/06/14 11:42:36;;;;;;;;;;;;;;;26.95;41.04;101761.59;5065922;28;20003;-73
2023/06/14 11:45:02;;;;;;;;;;;;;;;26.97;40.99;101759.47;5061153;28;19920;-71
2023/06/14 11:47:38;;;;;;;;;;;;;;;26.97;41.19;101765.78;5055208;28;19922;-73
2023/06/14 11:50:04;;;;;;;;;;;;;;;26.99;41.19;101768.34;5059302;28;19924;-72
2023/06/14 11:52:29;;;;;;;;;;;;;;;27.01;40.98;101772.53;5053261;28;19912;-73
2023/06/14 11:54:54;;;;;;;;;;;;;;;27.03;40.94;101766.88;5063087;28;19920;-72
2023/06/14 11:57:20;;;;;;;;;;;;;;;26.60;41.04;101698.84;5041675;28;19917;-72
2023/06/14 11:59:45;;;;;;;;;;;;;;;27.07;40.99;101763.53;5069675;28;19921;-72
2023/06/14 12:02:14;;;;;;;;;;;;;;;27.08;40.92;101770.69;5051748;28;19920;-73
2023/06/14 12:04:43;;;;;;;;;;;;;;;27.09;40.90;101761.47;5035030;28;19932;-72
2023/06/14 12:07:18;;;;;;;;;;;;;;;27.12;41.10;101765.69;5062406;28;19920;-72
2023/06/14 12:09:56;;;;;;;;;;;;;;;27.14;41.04;101771.78;5068613;28;19916;-72
2023/06/14 12:12:29;;;;;;;;;;;;;;;27.16;41.25;101767.81;5063134;28;19913;-72
2023/06/14 12:14:54;;;;;;;;;;;;;;;27.19;41.06;101760.25;5053689;28;19942;-72
2023/06/14 12:17:20;;;;;;;;;;;;;;;27.22;41.10;101763.41;5054815;28;19976;-72
2023/06/14 12:19:45;;;;;;;;;;;;;;;27.23;40.90;101767.84;5076315;28;20015;-72
2023/06/14 12:22:11;;;;;;;;;;;;;;;27.25;40.90;101763.03;5062994;28;19955;-72
2023/06/14 12:24:39;;;;;;;;;;;;;;;27.28;40.94;101770.81;5056891;28;21288;-72
2023/06/14 12:27:04;;;;;;;;;;;;;;;27.30;40.71;101774.16;5055964;28;19919;-72
2023/06/14 12:29:30;;;;;;;;;;;;;;;27.33;40.71;101772.94;5057699;28;20650;-73
2023/06/14 12:31:56;;;;;;;;;;;;;;;27.35;40.79;101766.19;5064240;28;20323;-73